Time;durP1;ratioP1;P1;durP2;ratioP2;P2;SDS_P1;SDS_P2;PMS_P1;PMS_P2;Temp;Humidity;BMP_temperature;BMP_pressure;BME280_temperature;BME280_humidity;BME280_pressure;Samples;Min_cycle;Max_cycle;Signal;HPM_P1;HPM_P2
2021/10/16 00:00:58;;;;;;;;;;;23.10;44.70;;;;;;1534079;76;764;-67
2021/10/16 00:03:00;;;;;;;;;;;23.10;44.70;;;;;;1544111;76;681;-67
2021/10/16 00:05:02;;;;;;;;;;;23.10;44.70;;;;;;1544681;76;887;-68
2021/10/16 00:07:04;;;;;;;;;;;23.10;44.70;;;;;;1535625;76;788;-68
2021/10/16 00:09:06;;;;;;;;;;;23.10;44.70;;;;;;1543665;76;1156;-67
2021/10/16 00:11:08;;;;;;;;;;;23.10;44.80;;;;;;1519671;76;1940;-67
2021/10/16 00:13:10;;;;;;;;;;;23.10;44.70;;;;;;1541060;76;744;-69
2021/10/16 00:15:12;;;;;;;;;;;23.10;44.80;;;;;;1527088;76;843;-66
2021/10/16 00:17:13;;;;;;;;;;;23.10;44.70;;;;;;1542982;76;738;-67
2021/10/16 00:19:15;;;;;;;;;;;23.10;44.70;;;;;;1530441;76;1087;-65
2021/10/16 00:21:17;;;;;;;;;;;23.10;44.70;;;;;;1520393;76;764;-65
2021/10/16 00:23:19;;;;;;;;;;;23.10;44.70;;;;;;1544261;76;737;-68
2021/10/16 00:25:21;;;;;;;;;;;23.10;44.70;;;;;;1543536;76;705;-66
2021/10/16 00:27:23;;;;;;;;;;;23.10;44.80;;;;;;1536084;76;1130;-66
2021/10/16 00:29:25;;;;;;;;;;;23.10;44.80;;;;;;1530246;76;820;-66
2021/10/16 00:31:26;;;;;;;;;;;23.10;44.90;;;;;;1554679;76;1946;-67
2021/10/16 00:33:28;;;;;;;;;;;23.10;44.90;;;;;;1536371;77;693;-68
2021/10/16 00:35:30;;;;;;;;;;;23.10;44.90;;;;;;1530035;76;711;-68
2021/10/16 00:37:32;;;;;;;;;;;23.10;45.00;;;;;;1536840;76;1175;-68
2021/10/16 00:39:34;;;;;;;;;;;23.10;44.90;;;;;;1528345;77;834;-69
2021/10/16 00:41:36;;;;;;;;;;;23.10;45.00;;;;;;1534972;76;735;-70
2021/10/16 00:43:38;;;;;;;;;;;23.10;45.00;;;;;;1533686;76;703;-68
2021/10/16 00:45:40;;;;;;;;;;;23.10;45.00;;;;;;1530175;76;716;-69
2021/10/16 00:47:46;;;;;;;;;;;23.10;45.00;;;;;;1526747;76;1184;-70
2021/10/16 00:49:45;;;;;;;;;;;23.10;45.00;;;;;;1540583;76;1388;-69
2021/10/16 00:51:47;;;;;;;;;;;23.10;45.00;;;;;;1539421;76;1937;-68
2021/10/16 00:53:49;;;;;;;;;;;23.10;45.00;;;;;;1545712;76;699;-69
2021/10/16 00:55:51;;;;;;;;;;;23.10;45.00;;;;;;1531143;76;786;-69
2021/10/16 00:57:53;;;;;;;;;;;23.00;44.90;;;;;;1540874;76;1153;-69
2021/10/16 00:59:55;;;;;;;;;;;23.10;45.10;;;;;;1524634;76;737;-68
2021/10/16 01:01:57;;;;;;;;;;;23.10;45.10;;;;;;1539521;76;798;-69
2021/10/16 01:03:59;;;;;;;;;;;23.10;45.00;;;;;;1543356;76;743;-68
2021/10/16 01:06:01;;;;;;;;;;;23.10;45.00;;;;;;1533442;76;750;-69
2021/10/16 01:08:03;;;;;;;;;;;23.10;45.00;;;;;;1533943;76;1196;-69
2021/10/16 01:10:05;;;;;;;;;;;23.10;45.00;;;;;;1521332;76;1934;-69
2021/10/16 01:12:07;;;;;;;;;;;23.10;45.00;;;;;;1523993;76;733;-69
2021/10/16 01:14:10;;;;;;;;;;;23.10;44.90;;;;;;1554765;76;795;-67
2021/10/16 01:16:12;;;;;;;;;;;23.10;44.80;;;;;;1545707;76;769;-67
2021/10/16 01:18:14;;;;;;;;;;;23.10;44.80;;;;;;1530529;76;1225;-69
2021/10/16 01:20:17;;;;;;;;;;;23.10;44.80;;;;;;1533824;76;780;-66
2021/10/16 01:22:19;;;;;;;;;;;23.00;44.60;;;;;;1548171;76;1811;-68
2021/10/16 01:24:21;;;;;;;;;;;23.10;44.70;;;;;;1536806;76;763;-67
2021/10/16 01:26:23;;;;;;;;;;;23.10;44.70;;;;;;1531576;76;733;-67
2021/10/16 01:28:24;;;;;;;;;;;23.10;44.70;;;;;;1548112;74;1091;-66
2021/10/16 01:30:26;;;;;;;;;;;23.10;44.70;;;;;;1523662;76;1929;-68
2021/10/16 01:32:29;;;;;;;;;;;23.10;44.70;;;;;;1528048;76;832;-68
2021/10/16 01:34:31;;;;;;;;;;;23.10;44.80;;;;;;1531613;76;686;-70
2021/10/16 01:36:39;;;;;;;;;;;23.00;44.70;;;;;;1540882;76;928;-67
2021/10/16 01:38:41;;;;;;;;;;;23.10;44.80;;;;;;1540669;76;1149;-67
2021/10/16 01:40:43;;;;;;;;;;;23.10;44.90;;;;;;1530260;76;800;-68
2021/10/16 01:42:45;;;;;;;;;;;23.10;45.00;;;;;;1542551;77;728;-68
2021/10/16 01:44:47;;;;;;;;;;;23.10;44.90;;;;;;1536698;76;680;-69
2021/10/16 01:46:49;;;;;;;;;;;23.00;44.80;;;;;;1534312;75;736;-69
2021/10/16 01:48:50;;;;;;;;;;;23.00;44.80;;;;;;1529566;75;1182;-70
2021/10/16 01:50:53;;;;;;;;;;;23.10;44.90;;;;;;1532341;77;1925;-67
2021/10/16 01:52:55;;;;;;;;;;;23.00;44.90;;;;;;1533261;76;738;-67
2021/10/16 01:54:56;;;;;;;;;;;23.00;44.90;;;;;;1538949;76;692;-67
2021/10/16 01:56:58;;;;;;;;;;;23.00;44.80;;;;;;1543653;76;716;-69
2021/10/16 01:59:13;;;;;;;;;;;23.10;45.00;;;;;;1528685;71;2067;-68
2021/10/16 02:01:14;;;;;;;;;;;23.10;45.00;;;;;;1528159;76;722;-69
2021/10/16 02:03:16;;;;;;;;;;;23.00;44.80;;;;;;1533431;76;731;-69
2021/10/16 02:05:18;;;;;;;;;;;23.00;44.70;;;;;;1527613;76;783;-69
2021/10/16 02:07:20;;;;;;;;;;;23.00;44.70;;;;;;1541022;76;780;-69
2021/10/16 02:09:22;;;;;;;;;;;23.00;44.60;;;;;;1542135;76;1182;-70
2021/10/16 02:11:24;;;;;;;;;;;23.00;44.50;;;;;;1562554;74;1940;-68
2021/10/16 02:13:26;;;;;;;;;;;23.00;44.50;;;;;;1554387;76;876;-69
2021/10/16 02:15:28;;;;;;;;;;;23.00;44.50;;;;;;1545677;76;815;-69
2021/10/16 02:17:29;;;;;;;;;;;23.00;44.40;;;;;;1550325;74;725;-69
2021/10/16 02:19:31;;;;;;;;;;;23.00;44.40;;;;;;1552785;74;1117;-70
2021/10/16 02:21:33;;;;;;;;;;;23.00;44.50;;;;;;1559300;76;818;-70
2021/10/16 02:23:35;;;;;;;;;;;23.00;44.60;;;;;;1550632;76;665;-69
2021/10/16 02:25:37;;;;;;;;;;;23.00;44.80;;;;;;1559194;76;832;-71
2021/10/16 02:27:39;;;;;;;;;;;23.00;44.70;;;;;;1554832;76;785;-68
2021/10/16 02:29:41;;;;;;;;;;;23.00;45.00;;;;;;1550402;74;1155;-68
2021/10/16 02:31:42;;;;;;;;;;;23.00;45.00;;;;;;1552205;76;1950;-66
2021/10/16 02:33:44;;;;;;;;;;;23.10;45.10;;;;;;1555380;76;726;-68
2021/10/16 02:35:46;;;;;;;;;;;23.00;45.00;;;;;;1548235;76;716;-69
2021/10/16 02:37:48;;;;;;;;;;;23.00;44.90;;;;;;1554434;74;1141;-69
2021/10/16 02:39:50;;;;;;;;;;;23.10;45.20;;;;;;1556335;76;790;-69
2021/10/16 02:41:52;;;;;;;;;;;23.10;45.10;;;;;;1561064;76;738;-71
2021/10/16 02:43:54;;;;;;;;;;;23.10;45.00;;;;;;1561923;74;783;-70
2021/10/16 02:45:56;;;;;;;;;;;23.20;44.90;;;;;;1562513;76;745;-70
2021/10/16 02:47:58;;;;;;;;;;;23.30;44.90;;;;;;1550801;76;1118;-68
2021/10/16 02:50:00;;;;;;;;;;;23.30;44.70;;;;;;1560915;74;769;-68
2021/10/16 02:52:02;;;;;;;;;;;23.40;44.50;;;;;;1560800;76;1942;-68
2021/10/16 02:54:04;;;;;;;;;;;23.50;44.50;;;;;;1559374;74;723;-68
2021/10/16 02:56:05;;;;;;;;;;;23.50;44.40;;;;;;1556623;76;806;-69
2021/10/16 02:58:07;;;;;;;;;;;23.50;44.30;;;;;;1557749;76;1136;-72
2021/10/16 03:00:10;;;;;;;;;;;23.50;44.50;;;;;;1559783;74;764;-70
2021/10/16 03:02:11;;;;;;;;;;;23.50;44.60;;;;;;1553333;74;696;-68
2021/10/16 03:04:13;;;;;;;;;;;23.50;44.70;;;;;;1562114;76;909;-67
2021/10/16 03:06:15;;;;;;;;;;;23.30;44.70;;;;;;1544799;76;751;-68
2021/10/16 03:08:17;;;;;;;;;;;23.30;44.80;;;;;;1565864;76;1157;-68
2021/10/16 03:10:19;;;;;;;;;;;23.30;45.00;;;;;;1560211;76;753;-70
2021/10/16 03:12:21;;;;;;;;;;;23.30;45.00;;;;;;1558645;74;1928;-70
2021/10/16 03:14:23;;;;;;;;;;;23.20;45.00;;;;;;1562886;76;711;-71
2021/10/16 03:16:25;;;;;;;;;;;23.20;45.00;;;;;;1562212;76;794;-72
2021/10/16 03:18:26;;;;;;;;;;;23.20;45.10;;;;;;1547053;76;1150;-72
2021/10/16 03:20:28;;;;;;;;;;;23.10;45.00;;;;;;1562140;76;772;-72
2021/10/16 03:22:30;;;;;;;;;;;23.20;45.20;;;;;;1560424;74;689;-68
2021/10/16 03:24:32;;;;;;;;;;;23.20;45.20;;;;;;1560886;76;721;-70
2021/10/16 03:26:34;;;;;;;;;;;23.20;45.00;;;;;;1562814;76;766;-69
2021/10/16 03:28:36;;;;;;;;;;;23.30;45.00;;;;;;1558907;74;1145;-69
2021/10/16 03:30:38;;;;;;;;;;;23.20;44.90;;;;;;1557984;76;895;-69
2021/10/16 03:32:40;;;;;;;;;;;23.20;45.00;;;;;;1562804;76;1916;-69
2021/10/16 03:34:41;;;;;;;;;;;23.20;44.80;;;;;;1563763;76;759;-69
2021/10/16 03:36:43;;;;;;;;;;;23.30;45.00;;;;;;1562471;76;793;-70
2021/10/16 03:38:45;;;;;;;;;;;23.30;45.00;;;;;;1560454;76;1165;-70
2021/10/16 03:40:47;;;;;;;;;;;23.30;45.00;;;;;;1560371;76;863;-68
2021/10/16 03:42:49;;;;;;;;;;;23.30;44.90;;;;;;1557712;76;778;-68
2021/10/16 03:44:51;;;;;;;;;;;23.30;44.80;;;;;;1560125;76;707;-68
2021/10/16 03:46:53;;;;;;;;;;;23.50;44.90;;;;;;1566203;74;759;-68
2021/10/16 03:48:54;;;;;;;;;;;23.40;44.70;;;;;;1558353;76;1142;-68
2021/10/16 03:50:56;;;;;;;;;;;23.40;44.70;;;;;;1557831;74;784;-68
2021/10/16 03:52:58;;;;;;;;;;;23.50;44.70;;;;;;1549348;74;1924;-68
2021/10/16 03:55:00;;;;;;;;;;;23.40;44.60;;;;;;1551142;76;726;-68
2021/10/16 03:57:02;;;;;;;;;;;23.40;44.70;;;;;;1553320;76;787;-68
2021/10/16 03:59:04;;;;;;;;;;;23.40;44.60;;;;;;1559812;75;1170;-68
2021/10/16 04:01:06;;;;;;;;;;;23.40;44.60;;;;;;1553586;76;931;-69
2021/10/16 04:03:08;;;;;;;;;;;23.40;44.50;;;;;;1552143;76;755;-67
2021/10/16 04:05:10;;;;;;;;;;;23.50;44.40;;;;;;1558010;76;777;-68
2021/10/16 04:07:12;;;;;;;;;;;23.60;44.20;;;;;;1557082;76;888;-68
2021/10/16 04:09:15;;;;;;;;;;;23.70;44.10;;;;;;1558072;75;1160;-68
2021/10/16 04:11:17;;;;;;;;;;;23.70;43.90;;;;;;1560990;76;1919;-68
2021/10/16 04:13:19;;;;;;;;;;;23.90;43.90;;;;;;1546912;76;789;-68
2021/10/16 04:15:21;;;;;;;;;;;23.90;43.70;;;;;;1555471;76;785;-68
2021/10/16 04:17:23;;;;;;;;;;;23.90;43.60;;;;;;1559789;76;803;-67
2021/10/16 04:19:24;;;;;;;;;;;23.90;43.60;;;;;;1561166;74;1165;-68
2021/10/16 04:21:26;;;;;;;;;;;23.90;43.60;;;;;;1551442;75;690;-69
2021/10/16 04:23:28;;;;;;;;;;;23.90;43.50;;;;;;1563629;76;749;-70
2021/10/16 04:25:30;;;;;;;;;;;24.00;43.50;;;;;;1562336;74;840;-68
2021/10/16 04:27:32;;;;;;;;;;;23.90;43.50;;;;;;1559766;74;780;-68
2021/10/16 04:29:34;;;;;;;;;;;23.90;43.50;;;;;;1562015;74;1087;-68
2021/10/16 04:31:36;;;;;;;;;;;23.90;43.50;;;;;;1558908;76;1927;-73
2021/10/16 04:33:38;;;;;;;;;;;23.80;43.60;;;;;;1559188;76;837;-69
2021/10/16 04:35:41;;;;;;;;;;;23.90;43.70;;;;;;1560781;76;653;-68
2021/10/16 04:37:43;;;;;;;;;;;23.90;43.80;;;;;;1563367;76;1133;-67
2021/10/16 04:39:45;;;;;;;;;;;23.90;43.80;;;;;;1557700;76;746;-68
2021/10/16 04:41:46;;;;;;;;;;;23.80;43.80;;;;;;1557798;76;744;-70
2021/10/16 04:43:48;;;;;;;;;;;23.80;43.90;;;;;;1558300;75;730;-70
2021/10/16 04:45:50;;;;;;;;;;;23.80;43.90;;;;;;1559749;74;810;-70
2021/10/16 04:47:52;;;;;;;;;;;23.80;43.80;;;;;;1563002;74;1121;-70
2021/10/16 04:49:54;;;;;;;;;;;23.90;43.90;;;;;;1564138;76;742;-73
2021/10/16 04:51:56;;;;;;;;;;;23.80;43.90;;;;;;1554324;75;1929;-69
2021/10/16 04:53:58;;;;;;;;;;;23.80;43.90;;;;;;1558195;76;704;-67
2021/10/16 04:55:59;;;;;;;;;;;23.80;43.90;;;;;;1559412;75;949;-71
2021/10/16 04:58:01;;;;;;;;;;;23.80;43.90;;;;;;1557634;76;1113;-70
2021/10/16 05:00:04;;;;;;;;;;;23.70;44.00;;;;;;1551359;74;818;-69
2021/10/16 05:02:06;;;;;;;;;;;23.70;44.10;;;;;;1557457;76;715;-69
2021/10/16 05:04:07;;;;;;;;;;;23.80;44.10;;;;;;1557231;76;717;-70
2021/10/16 05:06:09;;;;;;;;;;;23.80;44.00;;;;;;1562343;76;669;-70
2021/10/16 05:08:11;;;;;;;;;;;23.90;44.10;;;;;;1561289;76;1147;-71
2021/10/16 05:10:13;;;;;;;;;;;23.70;44.10;;;;;;1560358;74;731;-69
2021/10/16 05:12:17;;;;;;;;;;;23.70;44.10;;;;;;1554194;76;1938;-73
2021/10/16 05:14:18;;;;;;;;;;;23.70;44.10;;;;;;1555950;76;1023;-69
2021/10/16 05:16:20;;;;;;;;;;;23.90;44.10;;;;;;1558915;74;769;-69
2021/10/16 05:18:23;;;;;;;;;;;23.80;44.00;;;;;;1560867;76;1185;-69
2021/10/16 05:20:25;;;;;;;;;;;23.80;44.00;;;;;;1554202;76;718;-69
2021/10/16 05:22:27;;;;;;;;;;;23.80;44.00;;;;;;1561204;74;880;-70
2021/10/16 05:24:29;;;;;;;;;;;23.80;44.00;;;;;;1563038;76;714;-69
2021/10/16 05:26:30;;;;;;;;;;;23.90;44.00;;;;;;1562016;74;761;-67
2021/10/16 05:28:32;;;;;;;;;;;23.90;44.00;;;;;;1558705;76;1130;-73
2021/10/16 05:30:34;;;;;;;;;;;23.80;44.00;;;;;;1563357;74;734;-73
2021/10/16 05:32:36;;;;;;;;;;;23.80;44.10;;;;;;1555744;74;1954;-70
2021/10/16 05:34:38;;;;;;;;;;;23.80;44.20;;;;;;1560124;76;716;-71
2021/10/16 05:36:40;;;;;;;;;;;23.80;44.30;;;;;;1560119;74;635;-69
2021/10/16 05:38:42;;;;;;;;;;;23.80;44.30;;;;;;1563619;74;1133;-71
2021/10/16 05:40:44;;;;;;;;;;;23.90;44.30;;;;;;1562416;76;795;-70
2021/10/16 05:42:46;;;;;;;;;;;23.90;44.30;;;;;;1560165;74;687;-70
2021/10/16 05:44:48;;;;;;;;;;;23.90;44.20;;;;;;1563830;74;574;-71
2021/10/16 05:46:49;;;;;;;;;;;23.90;44.20;;;;;;1547270;76;741;-71
2021/10/16 05:48:51;;;;;;;;;;;23.90;44.40;;;;;;1557537;76;1071;-70
2021/10/16 05:50:53;;;;;;;;;;;23.90;44.50;;;;;;1552122;75;726;-69
2021/10/16 05:52:55;;;;;;;;;;;23.70;44.80;;;;;;1553986;76;1944;-68
2021/10/16 05:54:57;;;;;;;;;;;23.80;44.80;;;;;;1553762;76;752;-69
2021/10/16 05:56:59;;;;;;;;;;;23.80;44.80;;;;;;1551246;76;1331;-67
2021/10/16 05:59:01;;;;;;;;;;;23.70;44.70;;;;;;1551492;76;1152;-68
2021/10/16 06:01:03;;;;;;;;;;;24.00;44.50;;;;;;1558696;76;779;-72
2021/10/16 06:03:05;;;;;;;;;;;24.00;44.30;;;;;;1559005;76;782;-69
2021/10/16 06:05:07;;;;;;;;;;;24.00;44.20;;;;;;1549543;76;742;-71
2021/10/16 06:07:09;;;;;;;;;;;24.00;44.10;;;;;;1553674;76;795;-69
2021/10/16 06:09:11;;;;;;;;;;;24.10;44.20;;;;;;1557156;76;1185;-71
2021/10/16 06:11:13;;;;;;;;;;;24.00;44.00;;;;;;1557568;76;779;-69
2021/10/16 06:13:15;;;;;;;;;;;24.00;43.90;;;;;;1549255;76;1920;-73
2021/10/16 06:15:17;;;;;;;;;;;24.00;43.90;;;;;;1558388;76;832;-69
2021/10/16 06:17:19;;;;;;;;;;;24.00;43.90;;;;;;1559371;76;718;-69
2021/10/16 06:19:20;;;;;;;;;;;24.00;43.90;;;;;;1551044;76;1118;-69
2021/10/16 06:21:22;;;;;;;;;;;24.00;44.00;;;;;;1554685;76;790;-69
2021/10/16 06:23:24;;;;;;;;;;;24.00;44.00;;;;;;1554966;76;689;-69
2021/10/16 06:25:26;;;;;;;;;;;24.00;44.00;;;;;;1554717;76;690;-69
2021/10/16 06:27:28;;;;;;;;;;;24.00;44.00;;;;;;1559552;76;717;-67
2021/10/16 06:29:30;;;;;;;;;;;24.00;43.90;;;;;;1555866;76;1097;-69
2021/10/16 06:31:32;;;;;;;;;;;24.00;43.90;;;;;;1551375;76;715;-69
2021/10/16 06:33:34;;;;;;;;;;;24.00;44.00;;;;;;1554441;76;1932;-69
2021/10/16 06:35:37;;;;;;;;;;;23.90;44.00;;;;;;1557185;76;790;-71
2021/10/16 06:37:39;;;;;;;;;;;23.90;44.20;;;;;;1559604;76;774;-71
2021/10/16 06:39:41;;;;;;;;;;;23.90;44.20;;;;;;1556834;76;1114;-70
2021/10/16 06:41:42;;;;;;;;;;;23.90;44.10;;;;;;1554743;76;766;-68
2021/10/16 06:43:44;;;;;;;;;;;24.00;44.10;;;;;;1559527;76;738;-69
2021/10/16 06:45:46;;;;;;;;;;;24.00;44.10;;;;;;1558290;76;809;-69
2021/10/16 06:47:48;;;;;;;;;;;23.90;44.20;;;;;;1558143;76;1223;-69
2021/10/16 06:49:50;;;;;;;;;;;23.90;44.20;;;;;;1555033;76;772;-69
2021/10/16 06:51:52;;;;;;;;;;;23.90;44.20;;;;;;1550565;76;812;-69
2021/10/16 06:53:54;;;;;;;;;;;23.90;44.30;;;;;;1557327;76;1942;-72
2021/10/16 06:55:56;;;;;;;;;;;23.90;44.20;;;;;;1554726;76;807;-66
2021/10/16 06:57:57;;;;;;;;;;;23.90;44.20;;;;;;1547492;75;1091;-69
2021/10/16 06:59:59;;;;;;;;;;;24.00;44.10;;;;;;1559628;76;734;-70
2021/10/16 07:02:01;;;;;;;;;;;23.90;44.00;;;;;;1560438;76;804;-69
2021/10/16 07:04:03;;;;;;;;;;;24.00;44.00;;;;;;1558424;76;727;-70
2021/10/16 07:06:05;;;;;;;;;;;24.00;43.90;;;;;;1560197;76;756;-68
2021/10/16 07:08:07;;;;;;;;;;;24.00;44.00;;;;;;1556052;76;1188;-70
2021/10/16 07:10:09;;;;;;;;;;;23.90;44.20;;;;;;1553543;76;768;-71
2021/10/16 07:12:11;;;;;;;;;;;23.90;44.20;;;;;;1553136;76;790;-69
2021/10/16 07:14:13;;;;;;;;;;;24.00;44.20;;;;;;1560669;74;1964;-68
2021/10/16 07:16:14;;;;;;;;;;;23.90;44.20;;;;;;1559288;76;852;-68
2021/10/16 07:18:16;;;;;;;;;;;24.00;44.20;;;;;;1560359;76;1136;-68
2021/10/16 07:20:18;;;;;;;;;;;24.00;44.20;;;;;;1560024;76;679;-67
2021/10/16 07:22:20;;;;;;;;;;;24.00;44.10;;;;;;1560954;76;801;-71
2021/10/16 07:24:22;;;;;;;;;;;24.00;44.10;;;;;;1555557;74;778;-69
2021/10/16 07:26:25;;;;;;;;;;;24.00;43.90;;;;;;1546793;76;735;-69
2021/10/16 07:28:27;;;;;;;;;;;24.00;43.90;;;;;;1556713;76;1141;-69
2021/10/16 07:30:29;;;;;;;;;;;23.90;43.90;;;;;;1549416;76;724;-68
2021/10/16 07:32:31;;;;;;;;;;;23.90;43.90;;;;;;1559411;76;1934;-68
2021/10/16 07:34:33;;;;;;;;;;;23.90;43.90;;;;;;1559309;76;679;-70
2021/10/16 07:36:38;;;;;;;;;;;23.90;43.80;;;;;;1547688;76;691;-70
2021/10/16 07:38:40;;;;;;;;;;;23.90;43.80;;;;;;1557590;74;1082;-68
2021/10/16 07:40:44;;;;;;;;;;;23.90;43.70;;;;;;1556008;76;818;-69
2021/10/16 07:42:46;;;;;;;;;;;24.00;43.60;;;;;;1552423;76;713;-69
2021/10/16 07:44:48;;;;;;;;;;;24.00;43.50;;;;;;1553079;76;809;-69
2021/10/16 07:46:50;;;;;;;;;;;23.90;43.40;;;;;;1557651;75;810;-69
2021/10/16 07:48:52;;;;;;;;;;;24.00;43.30;;;;;;1552945;76;1182;-70
2021/10/16 07:50:54;;;;;;;;;;;24.00;43.20;;;;;;1553259;76;793;-68
2021/10/16 07:52:55;;;;;;;;;;;23.90;43.40;;;;;;1548016;75;1936;-70
2021/10/16 07:54:57;;;;;;;;;;;23.80;43.10;;;;;;1554299;76;730;-70
2021/10/16 07:57:01;;;;;;;;;;;23.70;42.90;;;;;;1551362;75;741;-69
2021/10/16 07:59:03;;;;;;;;;;;23.70;42.60;;;;;;1550216;73;223205;-73
2021/10/16 08:01:05;;;;;;;;;;;23.60;42.40;;;;;;1564006;74;1187;-75
2021/10/16 08:03:07;;;;;;;;;;;23.60;42.30;;;;;;1533564;76;747;-72
2021/10/16 08:05:13;;;;;;;;;;;23.60;42.00;;;;;;1541113;76;704;-72
2021/10/16 08:07:12;;;;;;;;;;;23.60;41.90;;;;;;1552013;76;919;-78
2021/10/16 08:09:14;;;;;;;;;;;23.50;41.80;;;;;;1549911;76;712;-75
2021/10/16 08:11:16;;;;;;;;;;;23.50;41.70;;;;;;1539544;76;1180;-74
2021/10/16 08:13:18;;;;;;;;;;;23.40;41.50;;;;;;1593155;70;226422;-60
2021/10/16 08:15:20;;;;;;;;;;;23.40;41.60;;;;;;1578666;73;1211;-58
2021/10/16 08:17:21;;;;;;;;;;;23.30;41.50;;;;;;1587021;73;787;-59
2021/10/16 08:19:23;;;;;;;;;;;23.40;41.30;;;;;;1578722;73;665;-58
2021/10/16 08:21:25;;;;;;;;;;;23.30;41.20;;;;;;1575812;73;721;-58
2021/10/16 08:23:27;;;;;;;;;;;23.30;41.30;;;;;;1579810;73;784;-58
2021/10/16 08:25:29;;;;;;;;;;;23.30;41.20;;;;;;1583816;73;1073;-59
2021/10/16 08:27:31;;;;;;;;;;;23.40;41.40;;;;;;1579117;73;732;-58
2021/10/16 08:29:33;;;;;;;;;;;23.30;41.50;;;;;;1578588;74;709;-58
2021/10/16 08:31:34;;;;;;;;;;;23.40;41.70;;;;;;1597166;73;689;-58
2021/10/16 08:33:37;;;;;;;;;;;23.40;41.80;;;;;;1591771;73;1926;-58
2021/10/16 08:35:39;;;;;;;;;;;23.40;41.90;;;;;;1601006;73;1078;-58
2021/10/16 08:37:41;;;;;;;;;;;23.50;42.50;;;;;;1588019;73;737;-59
2021/10/16 08:39:43;;;;;;;;;;;23.50;42.60;;;;;;1594956;73;958;-58
2021/10/16 08:41:45;;;;;;;;;;;23.50;43.10;;;;;;1592647;73;703;-59
2021/10/16 08:43:46;;;;;;;;;;;23.50;43.60;;;;;;1596734;73;681;-58
2021/10/16 08:45:48;;;;;;;;;;;23.50;43.70;;;;;;1589855;73;1146;-58
2021/10/16 08:47:50;;;;;;;;;;;23.50;43.30;;;;;;1585198;74;727;-59
2021/10/16 08:49:52;;;;;;;;;;;23.50;43.20;;;;;;1591580;73;841;-58
2021/10/16 08:51:54;;;;;;;;;;;23.60;43.00;;;;;;1585021;73;795;-58
2021/10/16 08:53:56;;;;;;;;;;;23.50;42.80;;;;;;1582412;74;1921;-58
2021/10/16 08:56:04;;;;;;;;;;;23.60;42.70;;;;;;1570949;74;1123;-57
2021/10/16 08:58:01;;;;;;;;;;;23.60;42.50;;;;;;1579083;74;1608;-56
2021/10/16 09:00:05;;;;;;;;;;;23.60;42.60;;;;;;1578821;73;776;-58
2021/10/16 09:02:07;;;;;;;;;;;23.60;42.80;;;;;;1586418;73;1709;-56
2021/10/16 09:04:11;;;;;;;;;;;23.60;42.90;;;;;;1587855;73;1227;-58
2021/10/16 09:06:26;;;;;;;;;;;23.60;42.60;;;;;;1580028;73;1774;-58
2021/10/16 09:08:33;;;;;;;;;;;23.60;42.60;;;;;;1597591;73;1596;-58
2021/10/16 09:10:35;;;;;;;;;;;23.70;42.80;;;;;;1590525;73;1686;-59
2021/10/16 09:12:38;;;;;;;;;;;23.70;42.80;;;;;;1581256;73;748;-57
2021/10/16 09:14:46;;;;;;;;;;;23.70;42.80;;;;;;1584842;73;1944;-59
2021/10/16 09:16:50;;;;;;;;;;;23.70;43.00;;;;;;1597024;73;701;-57
2021/10/16 09:18:52;;;;;;;;;;;23.70;43.00;;;;;;1603448;73;763;-58
2021/10/16 09:20:54;;;;;;;;;;;23.80;42.40;;;;;;1595656;73;754;-59
2021/10/16 09:23:05;;;;;;;;;;;23.70;42.40;;;;;;1586137;74;722;-60
2021/10/16 09:25:08;;;;;;;;;;;23.70;42.30;;;;;;1597609;73;1153;-57
2021/10/16 09:27:10;;;;;;;;;;;23.70;42.30;;;;;;1607302;73;716;-59
2021/10/16 09:29:12;;;;;;;;;;;23.70;42.40;;;;;;1578521;73;755;-63
2021/10/16 09:31:14;;;;;;;;;;;23.70;42.30;;;;;;1575370;74;683;-59
2021/10/16 09:33:16;;;;;;;;;;;23.70;42.10;;;;;;1594957;73;1914;-58
2021/10/16 09:35:18;;;;;;;;;;;23.60;41.80;;;;;;1570073;73;1083;-58
2021/10/16 09:37:20;;;;;;;;;;;23.70;42.10;;;;;;1589103;73;648;-57
2021/10/16 09:39:22;;;;;;;;;;;23.70;42.40;;;;;;1582811;73;794;-58
2021/10/16 09:41:25;;;;;;;;;;;23.60;42.20;;;;;;1584767;74;715;-59
2021/10/16 09:43:27;;;;;;;;;;;23.70;42.10;;;;;;1577526;74;721;-60
2021/10/16 09:45:29;;;;;;;;;;;23.60;41.90;;;;;;1575228;73;1081;-59
2021/10/16 09:47:31;;;;;;;;;;;23.70;41.70;;;;;;1587827;73;820;-57
2021/10/16 09:49:34;;;;;;;;;;;23.60;41.50;;;;;;1571408;73;698;-58
2021/10/16 09:51:38;;;;;;;;;;;23.60;41.40;;;;;;1584442;73;807;-57
2021/10/16 09:53:39;;;;;;;;;;;23.30;41.30;;;;;;1565209;73;1947;-59
2021/10/16 09:55:41;;;;;;;;;;;23.60;41.40;;;;;;1575272;73;1246;-58
2021/10/16 09:57:44;;;;;;;;;;;23.70;41.40;;;;;;1568953;73;695;-57
2021/10/16 09:59:46;;;;;;;;;;;23.60;41.20;;;;;;1571113;73;779;-58
2021/10/16 10:01:48;;;;;;;;;;;23.50;41.10;;;;;;1583225;73;689;-58
2021/10/16 10:03:50;;;;;;;;;;;23.50;41.10;;;;;;1587989;73;670;-58
2021/10/16 10:05:52;;;;;;;;;;;23.50;41.10;;;;;;1580163;73;1116;-57
2021/10/16 10:07:54;;;;;;;;;;;23.40;41.00;;;;;;1586767;74;738;-60
2021/10/16 10:09:55;;;;;;;;;;;23.40;41.00;;;;;;1583280;73;760;-60
2021/10/16 10:11:57;;;;;;;;;;;23.30;41.00;;;;;;1562071;75;1360;-58
2021/10/16 10:13:59;;;;;;;;;;;23.30;41.00;;;;;;1587742;74;1933;-59
2021/10/16 10:16:01;;;;;;;;;;;23.40;41.10;;;;;;1584623;73;1100;-60
2021/10/16 10:18:59;;;;;;;;;;;23.30;41.00;;;;;;1577672;73;806;-58
2021/10/16 10:20:08;;;;;;;;;;;23.30;41.10;;;;;;1571910;74;1476;-58
2021/10/16 10:22:14;;;;;;;;;;;23.40;41.20;;;;;;1575621;73;1782;-58
2021/10/16 10:24:15;;;;;;;;;;;23.30;41.10;;;;;;1574020;73;1100;-59
2021/10/16 10:26:27;;;;;;;;;;;23.30;41.10;;;;;;1590544;73;653;-58
2021/10/16 10:28:37;;;;;;;;;;;23.30;41.10;;;;;;1580124;73;754;-58
2021/10/16 10:30:42;;;;;;;;;;;23.30;41.20;;;;;;1580549;73;1854;-61
2021/10/16 10:32:44;;;;;;;;;;;23.20;41.00;;;;;;1587483;73;898;-59
2021/10/16 10:34:53;;;;;;;;;;;23.20;41.00;;;;;;1580598;73;1936;-58
2021/10/16 10:36:58;;;;;;;;;;;23.30;41.20;;;;;;1593200;74;775;-59
2021/10/16 10:39:00;;;;;;;;;;;23.20;41.10;;;;;;1595496;73;701;-58
2021/10/16 10:41:19;;;;;;;;;;;23.20;41.10;;;;;;1584398;73;665;-58
2021/10/16 10:43:31;;;;;;;;;;;23.20;41.10;;;;;;1515655;77;1157;-58
2021/10/16 10:45:34;;;;;;;;;;;23.20;41.00;;;;;;1546342;73;1832;-60
2021/10/16 10:47:36;;;;;;;;;;;23.20;40.90;;;;;;1592977;73;673;-59
2021/10/16 10:49:43;;;;;;;;;;;23.20;41.00;;;;;;1579778;74;789;-60
2021/10/16 10:51:46;;;;;;;;;;;23.20;41.00;;;;;;1578367;73;779;-59
2021/10/16 10:53:48;;;;;;;;;;;23.10;41.00;;;;;;1539023;75;1919;-59
2021/10/16 10:55:51;;;;;;;;;;;23.10;41.10;;;;;;1514987;77;1157;-60
2021/10/16 10:58:02;;;;;;;;;;;23.10;41.10;;;;;;1519051;78;687;-60
2021/10/16 11:00:00;;;;;;;;;;;23.10;41.10;;;;;;1515201;77;1446;-60
2021/10/16 11:02:04;;;;;;;;;;;23.10;41.10;;;;;;1548557;75;1670;-58
2021/10/16 11:04:06;;;;;;;;;;;23.20;40.90;;;;;;1552547;76;684;-57
2021/10/16 11:06:12;;;;;;;;;;;23.10;40.90;;;;;;1551320;75;1105;-58
2021/10/16 11:08:15;;;;;;;;;;;23.10;40.90;;;;;;1554220;75;704;-58
2021/10/16 11:10:17;;;;;;;;;;;23.20;40.80;;;;;;1550470;75;1123;-60
2021/10/16 11:12:19;;;;;;;;;;;23.20;40.80;;;;;;1551755;76;718;-59
2021/10/16 11:14:21;;;;;;;;;;;23.10;40.80;;;;;;1552456;75;1938;-59
2021/10/16 11:16:23;;;;;;;;;;;23.10;40.70;;;;;;1521829;77;755;-57
2021/10/16 11:18:25;;;;;;;;;;;23.00;40.70;;;;;;1577778;73;674;-59
2021/10/16 11:20:34;;;;;;;;;;;23.00;40.70;;;;;;1572194;73;674;-58
2021/10/16 11:22:47;;;;;;;;;;;23.10;40.90;;;;;;1596299;73;1578;-60
2021/10/16 11:24:48;;;;;;;;;;;23.00;40.60;;;;;;1595764;73;1093;-59
2021/10/16 11:26:52;;;;;;;;;;;23.00;40.70;;;;;;1573470;73;682;-59
2021/10/16 11:28:54;;;;;;;;;;;22.90;40.80;;;;;;1568430;73;1807;-60
2021/10/16 11:30:56;;;;;;;;;;;23.00;40.80;;;;;;1578266;73;779;-59
2021/10/16 11:33:05;;;;;;;;;;;23.00;40.70;;;;;;1599593;73;672;-58
2021/10/16 11:35:08;;;;;;;;;;;23.00;40.60;;;;;;1573656;74;1938;-59
2021/10/16 11:37:10;;;;;;;;;;;23.00;40.70;;;;;;1584366;73;688;-58
2021/10/16 11:39:13;;;;;;;;;;;23.00;40.70;;;;;;1586925;73;736;-58
2021/10/16 11:41:15;;;;;;;;;;;23.00;40.60;;;;;;1596275;73;749;-57
2021/10/16 11:43:17;;;;;;;;;;;23.00;40.70;;;;;;1599839;73;654;-58
2021/10/16 11:45:20;;;;;;;;;;;22.90;40.70;;;;;;1595746;73;1104;-59
2021/10/16 11:47:22;;;;;;;;;;;23.00;40.40;;;;;;1571896;73;687;-58
2021/10/16 11:49:24;;;;;;;;;;;22.90;40.40;;;;;;1583794;73;868;-58
2021/10/16 11:51:30;;;;;;;;;;;23.00;40.40;;;;;;1586339;73;784;-60
2021/10/16 11:53:34;;;;;;;;;;;23.00;40.50;;;;;;1605823;73;772;-59
2021/10/16 11:55:36;;;;;;;;;;;22.90;40.50;;;;;;1599637;73;1913;-60
2021/10/16 11:57:38;;;;;;;;;;;23.00;40.50;;;;;;1595424;73;721;-57
2021/10/16 11:59:40;;;;;;;;;;;23.00;40.50;;;;;;1591336;73;720;-60
2021/10/16 12:01:45;;;;;;;;;;;22.90;40.50;;;;;;1586420;74;773;-59
2021/10/16 12:03:47;;;;;;;;;;;22.90;40.60;;;;;;1589565;74;732;-58
2021/10/16 12:05:50;;;;;;;;;;;22.90;40.60;;;;;;1590888;73;1117;-60
2021/10/16 12:07:52;;;;;;;;;;;22.80;40.50;;;;;;1588888;73;764;-59
2021/10/16 12:09:55;;;;;;;;;;;22.90;40.50;;;;;;1587200;74;748;-58